Time;durP1;ratioP1;P1;durP2;ratioP2;P2;SDS_P1;SDS_P2;PMS_P1;PMS_P2;Temp;Humidity;BMP_temperature;BMP_pressure;BME280_temperature;BME280_humidity;BME280_pressure;Samples;Min_cycle;Max_cycle;Signal;HPM_P1;HPM_P2
2022/12/20 00:01:18;;;;;;;1.87;1.67;;;10.90;99.90;;;;;;5076274;28;20266;-64
2022/12/20 00:03:45;;;;;;;2.93;1.60;;;10.90;99.90;;;;;;5059212;28;22429;-64
2022/12/20 00:06:13;;;;;;;2.10;1.90;;;10.90;99.90;;;;;;5079094;28;20277;-65
2022/12/20 00:08:40;;;;;;;4.67;1.70;;;10.90;99.90;;;;;;5073964;28;20207;-65
2022/12/20 00:11:09;;;;;;;2.30;1.80;;;10.90;99.90;;;;;;5074661;28;20249;-64
2022/12/20 00:13:37;;;;;;;2.50;1.97;;;10.90;99.90;;;;;;5059205;28;20285;-64
2022/12/20 00:16:08;;;;;;;3.00;2.13;;;10.90;99.90;;;;;;5075548;28;20209;-66
2022/12/20 00:18:35;;;;;;;2.23;1.87;;;10.90;99.90;;;;;;5071320;28;20259;-66
2022/12/20 00:21:04;;;;;;;3.60;1.87;;;10.90;99.90;;;;;;5079444;28;20213;-65
2022/12/20 00:23:33;;;;;;;3.80;2.03;;;11.00;99.90;;;;;;5078377;28;20206;-65
2022/12/20 00:26:13;;;;;;;3.23;2.10;;;10.90;99.90;;;;;;5079503;28;20279;-64
2022/12/20 00:28:41;;;;;;;2.50;2.00;;;10.90;99.90;;;;;;5076091;28;20202;-66
2022/12/20 00:31:10;;;;;;;4.37;2.00;;;10.90;99.90;;;;;;5079478;28;20214;-66
2022/12/20 00:33:38;;;;;;;2.50;1.90;;;10.90;99.90;;;;;;5078954;28;20232;-65
2022/12/20 00:36:06;;;;;;;3.07;1.80;;;10.90;99.90;;;;;;5079006;28;20318;-65
2022/12/20 00:38:33;;;;;;;3.47;1.90;;;11.00;99.90;;;;;;5077171;28;20233;-65
2022/12/20 00:41:09;;;;;;;1.73;1.60;;;11.00;99.90;;;;;;5078912;28;20262;-65
2022/12/20 00:43:37;;;;;;;3.40;2.00;;;11.00;99.90;;;;;;5077491;28;20238;-66
2022/12/20 00:46:06;;;;;;;2.97;1.70;;;11.00;99.90;;;;;;5079609;28;20599;-65
2022/12/20 00:48:34;;;;;;;2.40;1.70;;;11.00;99.90;;;;;;5077674;28;20264;-65
2022/12/20 00:51:13;;;;;;;3.07;2.00;;;11.00;99.90;;;;;;5059309;28;20194;-67
2022/12/20 00:53:40;;;;;;;3.43;1.87;;;11.00;99.90;;;;;;5077372;28;20297;-65
2022/12/20 00:56:08;;;;;;;2.33;1.57;;;11.00;99.90;;;;;;5077995;28;20668;-65
2022/12/20 00:58:37;;;;;;;3.10;1.80;;;11.10;99.90;;;;;;5075508;28;20601;-65
2022/12/20 01:01:06;;;;;;;2.53;1.97;;;11.10;99.90;;;;;;5081305;28;20327;-65
2022/12/20 01:03:33;;;;;;;2.43;1.87;;;11.10;99.90;;;;;;5084872;28;21172;-64
2022/12/20 01:06:01;;;;;;;3.27;1.73;;;11.10;99.90;;;;;;5081181;28;20209;-64
2022/12/20 01:08:30;;;;;;;3.13;1.77;;;11.10;99.90;;;;;;5081078;28;20505;-65
2022/12/20 01:10:57;;;;;;;1.80;1.67;;;11.20;99.90;;;;;;5060421;28;20241;-64
2022/12/20 01:13:25;;;;;;;2.70;1.70;;;11.20;99.90;;;;;;5062225;28;20233;-63
2022/12/20 01:15:52;;;;;;;1.80;1.60;;;11.10;99.90;;;;;;5083189;28;20209;-65
2022/12/20 01:18:19;;;;;;;3.33;2.00;;;11.00;99.90;;;;;;5078941;28;20234;-65
2022/12/20 01:20:46;;;;;;;5.80;1.93;;;10.90;99.90;;;;;;5082476;28;20534;-64
2022/12/20 01:23:12;;;;;;;2.47;2.13;;;10.80;99.90;;;;;;5081835;28;20573;-65
2022/12/20 01:25:39;;;;;;;6.87;1.70;;;10.70;99.90;;;;;;5081311;28;20293;-65
2022/12/20 01:28:06;;;;;;;2.77;1.80;;;10.60;99.90;;;;;;5080519;28;20236;-65
2022/12/20 01:30:33;;;;;;;2.57;1.80;;;10.60;99.90;;;;;;5063427;28;20238;-65
2022/12/20 01:33:00;;;;;;;2.67;2.00;;;10.50;99.90;;;;;;5081195;28;20201;-65
2022/12/20 01:35:27;;;;;;;4.50;1.93;;;10.40;99.90;;;;;;5071126;28;20206;-66
2022/12/20 01:37:53;;;;;;;3.53;2.03;;;10.40;99.90;;;;;;5082455;28;20235;-65
2022/12/20 01:40:20;;;;;;;2.37;2.17;;;10.30;99.90;;;;;;5078814;28;20311;-66
2022/12/20 01:42:47;;;;;;;3.97;2.10;;;10.30;99.90;;;;;;5079871;28;20644;-65
2022/12/20 01:45:24;;;;;;;3.13;2.27;;;10.30;99.90;;;;;;5080903;28;20324;-65
2022/12/20 01:47:51;;;;;;;2.43;1.90;;;10.20;99.90;;;;;;5063041;28;20200;-64
2022/12/20 01:50:18;;;;;;;2.13;1.93;;;10.10;99.90;;;;;;5076513;28;20200;-65
2022/12/20 01:52:46;;;;;;;4.53;2.30;;;10.10;99.90;;;;;;5079339;28;20218;-66
2022/12/20 01:55:21;;;;;;;3.07;2.50;;;10.10;99.90;;;;;;5066643;28;20208;-65
2022/12/20 01:58:00;;;;;;;4.37;2.60;;;10.10;99.90;;;;;;5060093;28;20213;-65
2022/12/20 02:00:28;;;;;;;3.73;2.37;;;10.10;99.90;;;;;;5069802;28;20234;-67
2022/12/20 02:03:00;;;;;;;3.97;2.40;;;10.00;99.90;;;;;;5080380;28;20197;-65
2022/12/20 02:05:27;;;;;;;4.50;2.27;;;10.00;99.90;;;;;;5079170;28;20248;-65
2022/12/20 02:07:55;;;;;;;3.20;2.33;;;10.00;99.90;;;;;;5078895;28;20197;-65
2022/12/20 02:10:28;;;;;;;2.70;2.33;;;10.00;99.90;;;;;;5064618;28;20327;-66
2022/12/20 02:13:06;;;;;;;4.60;2.30;;;10.10;99.90;;;;;;5079800;28;20669;-65
2022/12/20 02:15:55;;;;;;;5.07;2.83;;;10.00;99.90;;;;;;5079059;28;20212;-65
2022/12/20 02:18:22;;;;;;;4.67;2.40;;;10.00;99.90;;;;;;5079466;28;20216;-65
2022/12/20 02:21:25;;;;;;;3.73;2.20;;;10.00;99.90;;;;;;5080760;28;20680;-65
2022/12/20 02:24:26;;;;;;;3.10;2.00;;;10.00;99.90;;;;;;5079797;28;20243;-66
2022/12/20 02:27:24;;;;;;;4.03;2.53;;;10.10;99.90;;;;;;5067438;28;20268;-64
2022/12/20 02:30:13;;;;;;;3.17;2.37;;;10.00;99.90;;;;;;5078710;28;20675;-66
2022/12/20 02:32:45;;;;;;;4.63;2.57;;;10.10;99.90;;;;;;5078968;28;21823;-65
2022/12/20 02:35:18;;;;;;;3.87;2.40;;;10.10;99.90;;;;;;5080304;28;20233;-65
2022/12/20 02:37:53;;;;;;;4.03;2.60;;;10.10;99.90;;;;;;5078127;28;20221;-65
2022/12/20 02:40:31;;;;;;;5.67;3.13;;;10.10;99.90;;;;;;5079463;28;20301;-64
2022/12/20 02:43:01;;;;;;;4.10;2.70;;;10.20;99.90;;;;;;5077394;28;20195;-65
2022/12/20 02:45:35;;;;;;;4.20;2.60;;;10.30;99.90;;;;;;5081688;28;20300;-65
2022/12/20 02:48:06;;;;;;;5.50;2.47;;;10.20;99.90;;;;;;5079070;28;20635;-65
2022/12/20 02:50:44;;;;;;;4.77;2.63;;;10.20;99.90;;;;;;5081112;28;20683;-65
2022/12/20 02:53:12;;;;;;;4.20;3.10;;;10.20;99.90;;;;;;5078109;28;20354;-65
2022/12/20 02:56:11;;;;;;;2.77;2.20;;;10.30;99.90;;;;;;5080576;28;20577;-65
2022/12/20 02:58:42;;;;;;;5.37;2.80;;;10.30;99.90;;;;;;5026639;28;20260;-68
2022/12/20 03:01:32;;;;;;;4.83;2.70;;;10.30;99.90;;;;;;5079927;28;20213;-66
2022/12/20 03:04:00;;;;;;;4.00;2.47;;;10.40;99.90;;;;;;5063492;28;20293;-64
2022/12/20 03:06:29;;;;;;;5.23;2.23;;;10.30;99.90;;;;;;5077736;28;20575;-66
2022/12/20 03:08:56;;;;;;;4.47;2.47;;;10.40;99.90;;;;;;5064135;28;20661;-65
2022/12/20 03:11:23;;;;;;;3.67;2.47;;;10.40;99.90;;;;;;5077157;28;20251;-65
2022/12/20 03:13:50;;;;;;;3.80;2.23;;;10.40;99.90;;;;;;5079840;28;20205;-66
2022/12/20 03:16:16;;;;;;;4.50;2.07;;;10.40;99.90;;;;;;5079909;28;20203;-65
2022/12/20 03:18:44;;;;;;;3.43;2.47;;;10.40;99.90;;;;;;5059798;28;20207;-67
2022/12/20 03:21:11;;;;;;;4.63;2.20;;;10.50;99.90;;;;;;5079827;28;20216;-64
2022/12/20 03:23:38;;;;;;;7.47;3.00;;;10.50;99.90;;;;;;5078823;28;20285;-65
2022/12/20 03:26:05;;;;;;;6.03;2.87;;;10.50;99.90;;;;;;5078885;28;20202;-65
2022/12/20 03:28:32;;;;;;;2.83;1.90;;;10.50;99.90;;;;;;5060137;28;20198;-64
2022/12/20 03:30:58;;;;;;;6.77;2.90;;;10.40;99.90;;;;;;5078636;28;20209;-64
2022/12/20 03:33:25;;;;;;;3.50;2.00;;;10.50;99.90;;;;;;5076943;28;20209;-65
2022/12/20 03:35:52;;;;;;;7.80;2.70;;;10.40;99.90;;;;;;5079344;28;20206;-65
2022/12/20 03:38:19;;;;;;;4.63;2.63;;;10.40;99.90;;;;;;5075691;28;20210;-64
2022/12/20 03:40:46;;;;;;;4.53;2.37;;;10.50;99.90;;;;;;5077848;28;20220;-64
2022/12/20 03:43:12;;;;;;;3.90;2.30;;;10.50;99.90;;;;;;5075359;28;20196;-65
2022/12/20 03:45:39;;;;;;;5.27;2.40;;;10.50;99.90;;;;;;5074741;28;20214;-65
2022/12/20 03:48:06;;;;;;;3.43;1.93;;;10.50;99.90;;;;;;5071814;28;20264;-66
2022/12/20 03:50:33;;;;;;;3.47;1.87;;;10.60;99.90;;;;;;5075445;28;20218;-64
2022/12/20 03:53:00;;;;;;;3.30;1.80;;;10.60;99.90;;;;;;5075195;28;20297;-64
2022/12/20 03:55:27;;;;;;;4.43;2.17;;;10.70;99.90;;;;;;5057499;28;20239;-64
2022/12/20 03:57:54;;;;;;;3.63;1.90;;;10.70;99.90;;;;;;5072667;28;20328;-66
2022/12/20 04:00:21;;;;;;;4.67;2.00;;;10.80;99.90;;;;;;5078090;28;20222;-64
2022/12/20 04:02:47;;;;;;;4.03;1.90;;;10.90;99.90;;;;;;5075038;28;20203;-69
2022/12/20 04:05:15;;;;;;;6.97;1.90;;;10.90;99.90;;;;;;5075298;28;20199;-66
2022/12/20 04:07:44;;;;;;;2.20;1.63;;;11.00;99.90;;;;;;5059820;28;20203;-65
2022/12/20 04:10:11;;;;;;;3.23;2.43;;;11.00;99.90;;;;;;5076489;28;20776;-66
2022/12/20 04:12:38;;;;;;;3.37;1.47;;;11.00;99.90;;;;;;5075033;28;20674;-65
2022/12/20 04:15:05;;;;;;;3.33;1.90;;;11.00;99.90;;;;;;5077434;28;20290;-64
2022/12/20 04:17:32;;;;;;;2.73;1.80;;;11.00;99.90;;;;;;5076998;28;20640;-65
2022/12/20 04:20:17;;;;;;;2.27;1.70;;;11.00;99.90;;;;;;5074623;28;20301;-67
2022/12/20 04:22:46;;;;;;;3.17;1.90;;;11.10;99.90;;;;;;5076143;28;20285;-63
2022/12/20 04:25:14;;;;;;;1.67;1.50;;;11.10;99.90;;;;;;5075035;28;20548;-66
2022/12/20 04:27:41;;;;;;;2.60;2.03;;;11.10;99.90;;;;;;5073444;28;20215;-64
2022/12/20 04:30:09;;;;;;;4.97;2.00;;;11.10;99.90;;;;;;5073796;28;20753;-64
2022/12/20 04:32:35;;;;;;;3.00;2.27;;;11.10;99.90;;;;;;5075089;28;20222;-63
2022/12/20 04:35:03;;;;;;;3.77;1.80;;;11.10;99.90;;;;;;5078397;28;20311;-64
2022/12/20 04:37:30;;;;;;;4.83;2.07;;;11.20;99.90;;;;;;5077073;28;20203;-66
2022/12/20 04:39:57;;;;;;;3.60;1.63;;;11.10;99.90;;;;;;5077950;28;20955;-66
2022/12/20 04:42:24;;;;;;;1.97;1.60;;;11.20;99.90;;;;;;5060172;28;20226;-65
2022/12/20 04:44:51;;;;;;;4.30;1.83;;;11.20;99.90;;;;;;5059428;28;20216;-63
2022/12/20 04:47:18;;;;;;;2.50;1.87;;;11.20;99.90;;;;;;5077039;28;20194;-65
2022/12/20 04:49:45;;;;;;;2.57;1.73;;;11.20;99.90;;;;;;5061924;28;20281;-64
2022/12/20 04:54:57;;;;;;;4.60;1.80;;;11.20;99.90;;;;;;5079646;28;20252;-64
2022/12/20 04:57:24;;;;;;;3.00;1.87;;;11.20;99.90;;;;;;5078846;28;21117;-65
2022/12/20 04:59:50;;;;;;;2.87;1.77;;;11.20;99.90;;;;;;5076317;28;20566;-64
2022/12/20 05:02:17;;;;;;;1.80;1.63;;;11.20;99.90;;;;;;5083833;28;20298;-64
2022/12/20 05:04:44;;;;;;;2.20;1.93;;;11.20;99.90;;;;;;5066234;28;20203;-65
2022/12/20 05:07:11;;;;;;;1.80;1.53;;;11.20;99.90;;;;;;5069688;28;20198;-64
2022/12/20 05:09:38;;;;;;;2.17;1.97;;;11.10;99.90;;;;;;5080677;28;20633;-65
2022/12/20 05:12:05;;;;;;;3.20;1.87;;;11.00;99.90;;;;;;5081976;28;20624;-65
2022/12/20 05:14:32;;;;;;;2.93;1.60;;;11.00;99.90;;;;;;5081280;28;20687;-66
2022/12/20 05:16:59;;;;;;;2.43;1.90;;;11.10;99.90;;;;;;5081660;28;20807;-65
2022/12/20 05:19:25;;;;;;;2.83;2.00;;;11.10;99.90;;;;;;5062703;28;20200;-65
2022/12/20 05:27:23;;;;;;;4.93;1.80;;;11.10;99.90;;;;;;5080898;28;20199;-64
2022/12/20 05:29:50;;;;;;;3.00;2.03;;;11.20;99.90;;;;;;5081935;28;20196;-66
2022/12/20 05:32:17;;;;;;;3.07;1.90;;;11.20;99.90;;;;;;5063245;28;20211;-64
2022/12/20 05:34:43;;;;;;;2.93;2.00;;;11.20;99.90;;;;;;5082587;28;20320;-64
2022/12/20 05:37:10;;;;;;;5.53;1.97;;;11.30;99.90;;;;;;5054377;28;20237;-64
2022/12/20 05:39:37;;;;;;;2.70;1.70;;;11.30;99.90;;;;;;5083086;28;20253;-64
2022/12/20 05:42:04;;;;;;;3.70;1.50;;;11.30;99.90;;;;;;5081479;28;20213;-66
2022/12/20 05:44:31;;;;;;;2.37;1.43;;;11.40;99.90;;;;;;5079939;28;20200;-64
2022/12/20 05:46:58;;;;;;;2.50;1.60;;;11.40;99.90;;;;;;5080091;28;20203;-64
2022/12/20 05:49:25;;;;;;;2.33;1.60;;;11.40;99.90;;;;;;5081107;28;20289;-65
2022/12/20 05:51:52;;;;;;;2.00;1.67;;;11.40;99.90;;;;;;5083305;28;20305;-65
2022/12/20 05:54:19;;;;;;;4.07;1.67;;;11.50;99.90;;;;;;5080962;28;20216;-65
2022/12/20 05:56:45;;;;;;;2.30;1.70;;;11.40;99.90;;;;;;5071490;28;20678;-65
2022/12/20 05:59:13;;;;;;;3.70;1.63;;;11.50;99.90;;;;;;5080181;28;20199;-65
2022/12/20 06:01:39;;;;;;;2.63;1.60;;;11.40;99.90;;;;;;5079359;28;20306;-65
2022/12/20 06:04:06;;;;;;;2.63;1.70;;;11.50;99.90;;;;;;5079258;28;20258;-66
2022/12/20 06:06:33;;;;;;;3.63;1.60;;;11.50;99.90;;;;;;5079665;28;20207;-65
2022/12/20 06:09:00;;;;;;;3.50;1.90;;;11.40;99.90;;;;;;5081103;28;20658;-65
2022/12/20 06:11:27;;;;;;;2.50;1.80;;;11.50;99.90;;;;;;5078941;28;20243;-65
2022/12/20 06:13:56;;;;;;;1.83;1.70;;;11.50;99.90;;;;;;5077670;28;20199;-65
2022/12/20 06:16:24;;;;;;;1.90;1.47;;;11.60;99.90;;;;;;5081701;28;20298;-65
2022/12/20 06:18:51;;;;;;;1.83;1.43;;;11.50;99.90;;;;;;5081604;28;20293;-64
2022/12/20 06:21:18;;;;;;;1.53;1.30;;;11.50;99.90;;;;;;5080961;28;20222;-65
2022/12/20 06:23:44;;;;;;;3.73;1.33;;;11.60;99.90;;;;;;5062934;28;20286;-65
2022/12/20 06:26:11;;;;;;;1.83;1.60;;;11.60;99.90;;;;;;5082918;28;20290;-64
2022/12/20 06:28:44;;;;;;;1.97;1.33;;;11.60;99.90;;;;;;5079313;28;20850;-65
2022/12/20 06:31:11;;;;;;;2.10;1.20;;;11.60;99.90;;;;;;5064227;28;20203;-64
2022/12/20 06:33:38;;;;;;;2.33;1.23;;;11.60;99.90;;;;;;5080274;28;20418;-65
2022/12/20 06:36:05;;;;;;;1.90;1.10;;;11.60;99.90;;;;;;5063182;28;20206;-65
2022/12/20 06:38:32;;;;;;;3.87;1.30;;;11.70;99.90;;;;;;5079869;28;20211;-66
2022/12/20 06:40:59;;;;;;;2.03;1.30;;;11.70;99.90;;;;;;5081900;28;20320;-65
2022/12/20 06:43:26;;;;;;;1.93;1.43;;;11.60;99.90;;;;;;5079558;28;20301;-65
2022/12/20 06:45:53;;;;;;;2.63;1.23;;;11.50;99.90;;;;;;5080560;28;20675;-66
2022/12/20 06:48:20;;;;;;;1.87;1.30;;;11.60;99.90;;;;;;5079778;28;20202;-66
2022/12/20 06:50:50;;;;;;;2.90;1.23;;;11.60;99.90;;;;;;5081619;28;20296;-65
2022/12/20 06:53:21;;;;;;;2.30;1.43;;;11.60;99.90;;;;;;5080754;28;20619;-65
2022/12/20 06:55:49;;;;;;;2.40;1.40;;;11.60;99.90;;;;;;5063250;28;20210;-66
2022/12/20 06:58:17;;;;;;;3.67;1.57;;;11.60;99.90;;;;;;5077074;28;20208;-66
2022/12/20 07:00:44;;;;;;;3.10;1.70;;;11.60;99.90;;;;;;5055786;28;20210;-66
2022/12/20 07:03:11;;;;;;;2.40;1.20;;;11.60;99.90;;;;;;5080022;28;20245;-65
2022/12/20 07:05:39;;;;;;;2.10;1.40;;;11.60;99.90;;;;;;5079606;28;20203;-66
2022/12/20 07:08:07;;;;;;;1.70;1.30;;;11.60;99.90;;;;;;5078571;28;20205;-65
2022/12/20 07:10:35;;;;;;;1.40;1.13;;;11.60;99.90;;;;;;5076479;28;20239;-66
2022/12/20 07:13:02;;;;;;;2.83;1.23;;;11.70;99.90;;;;;;5078540;28;20210;-65
2022/12/20 07:15:30;;;;;;;3.00;1.40;;;11.60;99.90;;;;;;5062823;28;20245;-64
2022/12/20 07:17:58;;;;;;;2.17;1.50;;;11.70;99.90;;;;;;5062358;28;20615;-65
2022/12/20 07:20:24;;;;;;;2.23;1.53;;;11.70;99.90;;;;;;5080334;28;20220;-65
2022/12/20 07:22:51;;;;;;;2.83;1.57;;;11.60;99.90;;;;;;5079722;28;20573;-64
2022/12/20 07:25:18;;;;;;;1.80;1.50;;;11.60;1.00;;;;;;5077749;28;20203;-64
2022/12/20 07:27:48;;;;;;;6.40;1.90;;;11.60;1.00;;;;;;5074271;28;20234;-67
2022/12/20 07:30:17;;;;;;;3.27;1.17;;;11.60;1.00;;;;;;5061037;28;20213;-65
2022/12/20 07:32:43;;;;;;;1.53;1.27;;;11.50;1.00;;;;;;5078617;28;20209;-65
2022/12/20 07:35:11;;;;;;;1.70;1.20;;;11.60;1.00;;;;;;4721021;28;10000082;-67
2022/12/20 07:37:38;;;;;;;4.40;1.57;;;11.60;1.00;;;;;;5052718;28;21042;-66
2022/12/20 07:40:07;;;;;;;3.90;1.20;;;11.50;1.00;;;;;;5075829;28;21668;-65
2022/12/20 07:42:34;;;;;;;4.10;1.47;;;11.60;99.90;;;;;;5075775;28;20254;-66
2022/12/20 07:45:06;;;;;;;1.97;1.30;;;11.50;99.90;;;;;;5077616;28;20191;-65
2022/12/20 07:47:34;;;;;;;1.90;1.10;;;11.40;99.90;;;;;;5079429;28;20683;-64
2022/12/20 07:50:02;;;;;;;2.50;1.40;;;11.40;99.90;;;;;;5079354;28;20296;-64
2022/12/20 07:52:31;;;;;;;4.30;1.90;;;11.40;99.90;;;;;;5077899;28;20248;-65
2022/12/20 07:55:01;;;;;;;4.57;1.70;;;11.50;99.90;;;;;;5077594;28;20266;-64
2022/12/20 07:57:47;;;;;;;3.33;1.37;;;11.50;99.90;;;;;;5078854;28;20206;-65
2022/12/20 08:00:17;;;;;;;1.63;1.23;;;11.50;99.90;;;;;;5079557;28;20239;-65
2022/12/20 08:02:54;;;;;;;5.27;1.50;;;11.50;99.90;;;;;;5076843;28;20696;-67
2022/12/20 08:05:22;;;;;;;3.43;1.40;;;11.50;99.90;;;;;;5059295;28;20653;-64
2022/12/20 08:07:49;;;;;;;2.43;1.27;;;11.60;99.90;;;;;;5074870;28;20746;-65
2022/12/20 08:10:25;;;;;;;1.47;1.20;;;11.60;99.90;;;;;;5076127;28;20288;-66
2022/12/20 08:12:52;;;;;;;4.30;1.80;;;11.70;99.90;;;;;;5073450;28;20201;-65
2022/12/20 08:15:21;;;;;;;1.80;1.40;;;11.60;99.90;;;;;;5071593;28;20205;-65
2022/12/20 08:17:48;;;;;;;1.77;1.40;;;11.60;99.90;;;;;;5073303;28;20304;-65
2022/12/20 08:20:16;;;;;;;2.57;1.10;;;11.60;99.90;;;;;;5075345;28;20263;-65
2022/12/20 08:22:42;;;;;;;2.03;1.27;;;11.50;99.90;;;;;;5071452;28;20217;-65
2022/12/20 08:25:10;;;;;;;4.20;1.63;;;11.50;99.90;;;;;;5057114;28;20244;-64
2022/12/20 08:27:37;;;;;;;4.73;1.23;;;11.40;99.90;;;;;;5075154;28;20282;-64
2022/12/20 08:30:06;;;;;;;4.27;1.77;;;11.30;99.90;;;;;;5076607;28;20280;-64
2022/12/20 08:32:33;;;;;;;1.93;1.40;;;11.10;99.90;;;;;;5073135;28;20288;-64
2022/12/20 08:34:59;;;;;;;3.87;1.60;;;11.00;99.90;;;;;;5074316;28;20212;-64
2022/12/20 08:37:26;;;;;;;1.90;1.40;;;10.90;99.90;;;;;;5070988;28;20205;-64
2022/12/20 08:39:53;;;;;;;2.77;1.20;;;10.80;99.90;;;;;;5038209;28;20543;-64
2022/12/20 08:42:21;;;;;;;2.30;1.63;;;10.80;99.90;;;;;;5071270;28;20737;-65
2022/12/20 08:44:48;;;;;;;3.47;1.70;;;10.70;99.90;;;;;;5072374;28;20208;-64
2022/12/20 08:47:14;;;;;;;6.50;1.83;;;10.70;99.90;;;;;;5070873;28;20295;-64
2022/12/20 08:49:41;;;;;;;3.87;1.87;;;10.60;99.90;;;;;;5075365;28;20196;-71
2022/12/20 08:52:14;;;;;;;3.10;1.70;;;10.60;99.90;;;;;;5071739;28;20196;-65
2022/12/20 08:54:41;;;;;;;2.73;1.70;;;10.60;99.90;;;;;;5076504;28;20289;-66
2022/12/20 08:57:08;;;;;;;3.37;1.50;;;10.60;99.90;;;;;;5076198;28;20588;-67
2022/12/20 08:59:34;;;;;;;2.47;1.40;;;10.60;99.90;;;;;;5069903;28;20194;-65
2022/12/20 09:02:01;;;;;;;2.10;1.80;;;10.60;99.90;;;;;;5058862;28;20639;-66
2022/12/20 09:04:28;;;;;;;4.03;1.80;;;10.60;99.90;;;;;;5079315;28;20230;-65
2022/12/20 09:06:55;;;;;;;2.60;1.57;;;10.60;99.90;;;;;;5077769;28;20228;-65
2022/12/20 09:09:22;;;;;;;2.70;1.77;;;10.50;99.90;;;;;;5076344;28;20288;-65
2022/12/20 09:11:49;;;;;;;1.83;1.37;;;10.50;99.90;;;;;;5076201;28;20336;-66
2022/12/20 09:14:16;;;;;;;3.37;1.33;;;10.50;99.90;;;;;;5056637;28;20296;-65
2022/12/20 09:16:43;;;;;;;3.03;1.43;;;10.50;99.90;;;;;;5075113;28;20208;-66
2022/12/20 09:19:12;;;;;;;2.70;1.60;;;10.50;99.90;;;;;;5074809;28;20293;-65
2022/12/20 09:21:39;;;;;;;4.07;1.70;;;10.50;99.90;;;;;;5067538;28;20693;-67
2022/12/20 09:24:07;;;;;;;4.47;1.73;;;10.50;99.90;;;;;;5080664;28;20207;-65
2022/12/20 09:26:34;;;;;;;3.30;1.50;;;10.50;99.90;;;;;;5083743;28;20558;-65
2022/12/20 09:29:02;;;;;;;2.27;1.43;;;10.40;99.90;;;;;;5060558;28;20231;-65
2022/12/20 09:31:29;;;;;;;3.80;1.60;;;10.50;99.90;;;;;;5078062;28;20272;-65
2022/12/20 09:33:57;;;;;;;2.93;1.67;;;10.50;99.90;;;;;;5060714;28;21021;-65
2022/12/20 09:36:26;;;;;;;2.83;1.53;;;10.50;99.90;;;;;;5080351;28;20205;-65
2022/12/20 09:38:54;;;;;;;5.03;1.67;;;10.50;99.90;;;;;;5082052;28;20603;-65
2022/12/20 09:41:20;;;;;;;3.90;1.57;;;10.50;99.90;;;;;;5064152;28;20722;-66
2022/12/20 09:43:49;;;;;;;2.60;2.17;;;10.40;99.90;;;;;;5062431;28;20234;-65
2022/12/20 09:46:16;;;;;;;4.00;1.70;;;10.30;99.90;;;;;;5080957;28;20294;-66
2022/12/20 09:48:44;;;;;;;2.63;2.23;;;10.30;99.90;;;;;;5081743;28;20646;-65
2022/12/20 09:51:51;;;;;;;3.80;2.00;;;10.20;99.90;;;;;;5069463;28;20288;-65
2022/12/20 09:54:31;;;;;;;2.47;1.60;;;10.30;99.90;;;;;;5082635;28;20317;-67
2022/12/20 09:56:58;;;;;;;2.47;1.73;;;10.30;99.90;;;;;;5080844;28;20213;-65
2022/12/20 09:59:26;;;;;;;3.00;1.73;;;10.30;99.90;;;;;;5079532;28;20247;-66
2022/12/20 10:01:53;;;;;;;3.97;1.60;;;10.30;99.90;;;;;;5081560;28;20221;-66
2022/12/20 10:04:28;;;;;;;4.53;1.97;;;10.20;99.90;;;;;;5081809;28;20579;-66
2022/12/20 10:07:50;;;;;;;3.87;1.87;;;10.30;99.90;;;;;;5080998;28;20553;-65
2022/12/20 10:10:44;;;;;;;4.57;1.77;;;10.30;99.90;;;;;;5006637;28;20389;-67
2022/12/20 10:13:21;;;;;;;2.40;1.83;;;10.30;99.90;;;;;;5080234;28;20206;-65
2022/12/20 10:16:38;;;;;;;5.10;2.10;;;10.30;99.90;;;;;;5063780;28;20716;-66
2022/12/20 10:19:13;;;;;;;3.73;2.33;;;10.40;99.90;;;;;;5077661;28;20302;-65
2022/12/20 10:22:08;;;;;;;4.37;2.07;;;10.40;99.90;;;;;;5079317;28;20661;-65
2022/12/20 10:24:37;;;;;;;3.10;1.70;;;10.40;99.90;;;;;;5082545;28;20194;-64
2022/12/20 10:27:15;;;;;;;4.70;2.17;;;10.40;99.90;;;;;;5063339;28;20679;-65
2022/12/20 10:29:43;;;;;;;2.70;1.83;;;10.40;99.90;;;;;;5079566;28;20201;-66
2022/12/20 10:32:15;;;;;;;2.93;2.10;;;10.40;99.90;;;;;;5078401;28;20198;-65
2022/12/20 10:35:18;;;;;;;3.73;2.10;;;10.40;99.90;;;;;;5080822;28;20206;-65
2022/12/20 10:38:06;;;;;;;4.27;2.20;;;10.40;99.90;;;;;;5048068;28;20282;-66
2022/12/20 10:40:41;;;;;;;4.27;1.70;;;10.50;99.90;;;;;;5080578;28;20318;-66
2022/12/20 10:43:41;;;;;;;4.87;1.80;;;10.50;99.90;;;;;;5077586;28;20260;-65
2022/12/20 10:46:09;;;;;;;2.50;1.57;;;10.50;99.90;;;;;;5061868;28;20713;-65
2022/12/20 10:48:40;;;;;;;3.03;2.17;;;10.60;99.90;;;;;;5059811;28;20692;-64
2022/12/20 10:51:07;;;;;;;8.47;2.37;;;10.60;99.90;;;;;;5077591;28;20996;-65
2022/12/20 10:53:53;;;;;;;4.37;2.40;;;10.60;99.90;;;;;;5077966;28;20217;-65
2022/12/20 10:56:29;;;;;;;6.93;2.00;;;10.60;99.90;;;;;;5078994;28;20292;-65
2022/12/20 10:59:01;;;;;;;2.73;2.00;;;10.60;99.90;;;;;;5075396;28;20241;-66
2022/12/20 11:01:32;;;;;;;4.10;1.77;;;10.60;99.90;;;;;;5077623;28;20205;-65
2022/12/20 11:04:20;;;;;;;3.00;2.10;;;10.60;99.90;;;;;;5076771;28;20695;-65
2022/12/20 11:06:47;;;;;;;4.93;2.20;;;10.70;99.90;;;;;;5066000;28;20269;-66
2022/12/20 11:09:20;;;;;;;3.47;1.90;;;10.60;99.90;;;;;;5077399;28;20249;-69
2022/12/20 11:12:10;;;;;;;3.37;2.30;;;10.60;99.90;;;;;;5077931;28;20252;-67
2022/12/20 11:14:38;;;;;;;2.23;1.77;;;10.60;99.90;;;;;;5078504;28;20205;-66
2022/12/20 11:17:32;;;;;;;2.37;1.97;;;10.60;99.90;;;;;;5077918;28;20205;-66
2022/12/20 11:19:58;;;;;;;4.67;2.13;;;10.60;99.90;;;;;;5078279;28;20687;-66
2022/12/20 11:22:42;;;;;;;3.23;2.17;;;10.60;99.90;;;;;;5072865;28;20577;-66
2022/12/20 11:25:32;;;;;;;4.30;2.13;;;10.60;99.90;;;;;;5059114;28;20282;-66
2022/12/20 11:28:20;;;;;;;5.53;2.73;;;10.50;99.90;;;;;;5070843;28;20251;-68
2022/12/20 11:31:19;;;;;;;3.87;2.37;;;10.50;99.90;;;;;;5076780;28;20195;-66
2022/12/20 11:33:58;;;;;;;3.77;2.03;;;10.50;99.90;;;;;;5076937;28;20816;-66
2022/12/20 11:36:53;;;;;;;4.57;2.13;;;10.50;99.90;;;;;;5073998;28;20291;-68
2022/12/20 11:39:23;;;;;;;5.77;2.67;;;10.60;99.90;;;;;;5076950;28;20654;-65
2022/12/20 11:42:32;;;;;;;3.07;2.20;;;10.50;99.90;;;;;;5074257;28;20574;-67
2022/12/20 11:45:33;;;;;;;5.93;2.27;;;10.60;99.90;;;;;;5034145;28;22007;-67
2022/12/20 11:48:14;;;;;;;3.83;2.93;;;10.60;99.90;;;;;;5076043;28;20278;-65
2022/12/20 11:50:53;;;;;;;3.70;2.53;;;10.60;99.90;;;;;;5069784;28;20240;-67
2022/12/20 11:53:30;;;;;;;9.67;2.47;;;10.60;99.90;;;;;;5070039;28;20204;-66
2022/12/20 11:56:02;;;;;;;5.17;2.50;;;10.60;99.90;;;;;;5073104;28;20220;-66
2022/12/20 11:58:49;;;;;;;4.03;2.90;;;10.50;99.90;;;;;;5056789;28;20217;-66
2022/12/20 12:01:19;;;;;;;2.73;2.37;;;10.60;99.90;;;;;;5077313;28;20291;-67
2022/12/20 12:04:05;;;;;;;3.63;2.40;;;10.60;99.90;;;;;;5078183;28;20312;-65
2022/12/20 12:06:37;;;;;;;3.80;2.27;;;10.60;99.90;;;;;;5078977;28;20282;-65
2022/12/20 12:09:10;;;;;;;4.33;2.40;;;10.60;99.90;;;;;;5078660;28;20563;-65
2022/12/20 12:11:43;;;;;;;6.20;2.57;;;10.60;99.90;;;;;;5077316;28;20297;-65
2022/12/20 12:15:01;;;;;;;3.20;2.60;;;10.60;99.90;;;;;;5079030;28;20582;-65
2022/12/20 12:17:41;;;;;;;6.20;3.10;;;10.60;99.90;;;;;;5079491;28;20213;-65
2022/12/20 12:20:47;;;;;;;6.43;2.73;;;10.60;99.90;;;;;;5079572;28;20258;-66
2022/12/20 12:23:54;;;;;;;4.73;2.90;;;10.60;99.90;;;;;;5040879;28;20223;-66
2022/12/20 12:26:26;;;;;;;4.77;2.47;;;10.60;99.90;;;;;;5078535;28;20700;-67
2022/12/20 12:29:02;;;;;;;4.50;2.70;;;10.60;99.90;;;;;;5077547;28;20284;-66
2022/12/20 12:31:38;;;;;;;8.87;2.87;;;10.60;99.90;;;;;;5072461;28;20260;-66
2022/12/20 12:34:24;;;;;;;4.67;2.47;;;10.60;99.90;;;;;;5076643;28;20201;-67
2022/12/20 12:37:29;;;;;;;6.43;2.53;;;10.60;99.90;;;;;;5054607;28;20204;-66
2022/12/20 12:40:04;;;;;;;7.10;2.83;;;10.60;99.90;;;;;;4995772;28;20198;-64
2022/12/20 12:43:02;;;;;;;4.50;2.63;;;10.60;99.90;;;;;;5075491;28;20216;-65
2022/12/20 12:45:46;;;;;;;5.77;3.00;;;10.60;99.90;;;;;;5077427;28;20284;-64
2022/12/20 12:48:26;;;;;;;5.23;3.27;;;10.60;99.90;;;;;;5075267;28;20201;-65
2022/12/20 12:50:57;;;;;;;5.23;2.77;;;10.60;99.90;;;;;;5073210;28;20292;-66
2022/12/20 12:53:43;;;;;;;4.37;3.10;;;10.60;99.90;;;;;;5057583;28;20209;-68
2022/12/20 12:56:30;;;;;;;4.90;3.23;;;10.60;99.90;;;;;;5077554;28;20676;-65
2022/12/20 12:59:44;;;;;;;3.40;3.07;;;10.60;99.90;;;;;;5076630;28;20298;-66
2022/12/20 13:02:13;;;;;;;4.70;2.57;;;10.60;99.90;;;;;;5067890;28;20206;-64
2022/12/20 13:05:14;;;;;;;5.33;3.03;;;10.60;99.90;;;;;;5079450;28;20229;-64
2022/12/20 13:07:45;;;;;;;4.00;2.83;;;10.60;99.90;;;;;;5065449;28;20958;-65
2022/12/20 13:10:17;;;;;;;3.67;2.63;;;10.60;99.90;;;;;;5075800;28;20205;-66
2022/12/20 13:12:51;;;;;;;3.60;3.23;;;10.60;99.90;;;;;;5058270;28;20238;-66
2022/12/20 13:15:20;;;;;;;3.23;2.90;;;10.60;99.90;;;;;;5078130;28;20200;-65
2022/12/20 13:17:50;;;;;;;4.93;3.03;;;10.60;99.90;;;;;;5059715;28;20203;-65
2022/12/20 13:20:26;;;;;;;3.33;2.43;;;10.60;99.90;;;;;;5062047;28;20280;-67
2022/12/20 13:23:09;;;;;;;4.00;2.60;;;10.60;99.90;;;;;;5076300;28;20216;-67